Autryville, North Carolina
Current Conditions -  °F | °C
As of 7:53 AM on Thursday 23 Oct 2014 (Local Time) from KFAY Reporting Station
Clear Clear  
Wind Chill: 51°   Ceiling: Unl
Heat Index: 51°   Visibility: 10mi
Dew Point: 40°   Wind: 12mph
Humidity: 66%   Direction: 320°NW
Pressure: 30.02"   Gusts: NA
Location:  35°N, 78.64°W
Report Text: KFAY 231153Z AUTO 32010KT 10SM CLR 11/04 A3002 RMK AO2 SLP161 T01060044 10111 20089 53002
Loading
Personal Weather Stations






























Interactive Weather Map
Tropical Storm Tracking
New forecast layout! Learn more

10-Day Weather Forecast

Advertisements
Track Severe Weather on mobile